Time;durP1;ratioP1;P1;durP2;ratioP2;P2;SDS_P1;SDS_P2;PMS_P1;PMS_P2;Temp;Humidity;BMP_temperature;BMP_pressure;BME280_temperature;BME280_humidity;BME280_pressure;Samples;Min_cycle;Max_cycle;Signal;HPM_P1;HPM_P2
2023/12/29 00:00:39;;;;;;;18.27;13.23;;;;;;;8.91;91.49;99202.56;5075873;28;20040;-67
2023/12/29 00:03:07;;;;;;;18.50;12.85;;;;;;;9.01;91.49;99200.06;5078009;28;20462;-67
2023/12/29 00:05:32;;;;;;;18.35;13.38;;;;;;;9.04;91.49;99195.47;5069465;28;20058;-68
2023/12/29 00:07:58;;;;;;;18.42;13.23;;;;;;;9.14;92.18;99194.72;5075075;28;20534;-68
2023/12/29 00:10:23;;;;;;;16.10;12.68;;;;;;;9.18;92.11;99189.19;5077472;28;20043;-67
2023/12/29 00:12:49;;;;;;;17.80;12.75;;;;;;;9.17;91.45;99186.72;5077219;28;20056;-68
2023/12/29 00:15:18;;;;;;;14.98;12.05;;;;;;;9.02;90.70;99150.66;5082795;28;20062;-68
2023/12/29 00:17:44;;;;;;;16.00;12.27;;;;;;;9.12;90.75;99171.50;5075329;28;20027;-67
2023/12/29 00:20:10;;;;;;;18.02;12.20;;;;;;;9.19;92.13;99161.47;5064399;28;20047;-67
2023/12/29 00:22:36;;;;;;;18.98;13.27;;;;;;;9.25;92.49;99155.78;5085704;28;20460;-67
2023/12/29 00:25:02;;;;;;;17.95;12.85;;;;;;;9.28;92.10;99150.34;5080884;28;20095;-68
2023/12/29 00:27:30;;;;;;;17.10;13.13;;;;;;;9.31;91.95;99151.84;5073081;28;20040;-67
2023/12/29 00:29:58;;;;;;;18.77;12.57;;;;;;;9.35;92.48;99145.50;5072559;28;20104;-68
2023/12/29 00:32:23;;;;;;;18.00;13.05;;;;;;;8.98;91.98;99096.53;5074538;28;20036;-67
2023/12/29 00:34:51;;;;;;;18.98;13.40;;;;;;;8.88;91.98;99088.69;5084009;28;20223;-67
2023/12/29 00:37:16;;;;;;;17.48;12.13;;;;;;;8.99;94.05;99124.13;5070190;28;20050;-67
2023/12/29 00:39:44;;;;;;;17.42;12.27;;;;;;;9.04;92.60;99128.00;5066890;28;20711;-67
2023/12/29 00:42:12;;;;;;;17.35;12.05;;;;;;;9.00;92.32;99125.78;5068819;28;20050;-67
2023/12/29 00:44:37;;;;;;;20.27;12.63;;;;;;;8.99;92.59;99121.53;5086120;28;20104;-67
2023/12/29 00:47:05;;;;;;;16.50;12.07;;;;;;;8.95;93.56;99126.16;5076009;28;20079;-67
2023/12/29 00:49:30;;;;;;;17.92;11.48;;;;;;;8.78;91.82;99130.09;5080228;27;20082;-67
2023/12/29 00:51:58;;;;;;;18.60;12.45;;;;;;;8.74;90.39;99125.25;5076631;28;20040;-67
2023/12/29 00:54:26;;;;;;;17.95;12.77;;;;;;;8.88;90.12;99118.97;5075976;28;20375;-67
2023/12/29 00:56:54;;;;;;;15.68;11.10;;;;;;;8.95;90.55;99127.94;5098294;28;20047;-67
2023/12/29 00:59:20;;;;;;;17.83;11.98;;;;;;;8.89;91.16;99137.03;5086585;27;20055;-68
2023/12/29 01:01:45;;;;;;;16.90;11.80;;;;;;;8.82;92.53;99125.47;5072499;28;20497;-68
2023/12/29 01:04:11;;;;;;;16.20;11.80;;;;;;;8.74;90.96;99128.66;5097306;27;20023;-67
2023/12/29 01:06:38;;;;;;;16.08;11.77;;;;;;;8.69;90.56;99125.63;5083078;28;20024;-67
2023/12/29 01:09:04;;;;;;;19.58;12.65;;;;;;;8.77;89.56;99130.19;5073730;28;20143;-67
2023/12/29 01:11:29;;;;;;;18.10;12.80;;;;;;;8.59;87.26;99102.16;5067507;28;20035;-67
2023/12/29 01:13:57;;;;;;;16.80;11.23;;;;;;;8.95;87.59;99133.94;5075135;28;20104;-68
2023/12/29 01:16:25;;;;;;;17.95;11.63;;;;;;;8.98;86.70;99125.06;5074156;28;20566;-67
2023/12/29 01:18:53;;;;;;;16.15;11.45;;;;;;;9.08;86.85;99128.59;5071243;28;20110;-67
2023/12/29 01:21:18;;;;;;;15.63;11.27;;;;;;;9.07;87.41;99126.94;5066855;28;20174;-67
2023/12/29 01:23:43;;;;;;;16.42;11.50;;;;;;;9.09;87.62;99130.25;5063316;28;20143;-67
2023/12/29 01:26:09;;;;;;;16.60;11.30;;;;;;;9.03;87.92;99130.72;5066754;28;20059;-68
2023/12/29 01:28:34;;;;;;;14.48;11.15;;;;;;;8.89;88.09;99105.91;5084712;28;20433;-68
2023/12/29 01:31:00;;;;;;;16.55;10.95;;;;;;;9.09;87.81;99130.25;5075304;28;20036;-67
2023/12/29 01:33:28;;;;;;;17.35;11.20;;;;;;;9.13;87.46;99129.06;5072362;28;20058;-68
2023/12/29 01:35:53;;;;;;;15.23;10.85;;;;;;;9.14;88.88;99119.50;5089558;28;20028;-68
2023/12/29 01:38:19;;;;;;;16.27;11.43;;;;;;;9.14;89.36;99135.06;5074709;28;20145;-69
2023/12/29 01:40:47;;;;;;;16.60;11.00;;;;;;;9.06;89.27;99121.88;5076034;28;20035;-67
2023/12/29 01:43:13;;;;;;;14.52;10.90;;;;;;;8.89;88.39;99099.88;5072357;28;20023;-68
2023/12/29 01:45:38;;;;;;;17.83;11.68;;;;;;;9.22;87.88;99145.66;5069897;28;20032;-68
2023/12/29 01:48:06;;;;;;;16.10;11.23;;;;;;;9.28;88.48;99137.38;5073338;28;20035;-68
2023/12/29 01:50:32;;;;;;;15.45;11.65;;;;;;;9.26;88.99;99141.06;5073731;28;20344;-68
2023/12/29 01:53:01;;;;;;;18.27;11.00;;;;;;;9.35;89.60;99145.50;5088438;28;20024;-67
2023/12/29 01:55:26;;;;;;;16.40;11.30;;;;;;;9.26;91.37;99146.25;5073094;28;20032;-68
2023/12/29 01:57:54;;;;;;;17.23;12.40;;;;;;;9.10;93.22;99147.44;5067626;28;20081;-69
2023/12/29 02:00:20;;;;;;;16.42;11.52;;;;;;;8.99;94.83;99145.69;5077609;28;20092;-69
2023/12/29 02:02:46;;;;;;;17.50;12.10;;;;;;;8.87;95.46;99133.72;5075047;28;20032;-66
2023/12/29 02:05:16;;;;;;;16.73;11.32;;;;;;;8.71;96.19;99125.50;5076598;28;20151;-67
2023/12/29 02:07:42;;;;;;;16.95;11.82;;;;;;;8.80;96.08;99140.34;5074583;28;20032;-67
2023/12/29 02:10:13;;;;;;;17.25;12.00;;;;;;;8.88;95.11;99135.34;5076436;28;20101;-67
2023/12/29 02:12:43;;;;;;;15.60;11.20;;;;;;;8.94;93.93;99126.25;5065520;28;20032;-68
2023/12/29 02:15:09;;;;;;;14.85;10.65;;;;;;;9.02;93.20;99119.53;5078407;28;20447;-67
2023/12/29 02:17:50;;;;;;;15.68;11.23;;;;;;;8.91;92.76;99118.72;5074434;28;20073;-66
2023/12/29 02:20:16;;;;;;;15.18;10.63;;;;;;;9.00;93.15;99105.88;5087761;27;20102;-66
2023/12/29 02:22:41;;;;;;;15.50;10.27;;;;;;;8.97;91.56;99102.69;5084645;28;20096;-67
2023/12/29 02:25:09;;;;;;;16.48;11.20;;;;;;;9.03;91.63;99107.38;5089058;27;21450;-67
2023/12/29 02:27:49;;;;;;;15.20;11.60;;;;;;;9.08;91.51;99109.63;5099406;28;20089;-66
2023/12/29 02:30:17;;;;;;;14.88;10.95;;;;;;;9.00;91.94;99105.88;5091722;27;20023;-67
2023/12/29 02:32:45;;;;;;;16.30;10.25;;;;;;;8.85;91.87;99099.28;5099712;28;20047;-68
2023/12/29 02:35:13;;;;;;;15.25;10.98;;;;;;;8.96;90.68;99099.28;5082061;28;20116;-68
2023/12/29 02:37:39;;;;;;;13.75;9.93;;;;;;;8.95;91.53;99091.63;5089703;27;20669;-71
2023/12/29 02:40:05;;;;;;;14.88;10.88;;;;;;;8.91;91.55;99098.81;5074681;27;20024;-68
2023/12/29 02:42:33;;;;;;;15.48;10.15;;;;;;;8.89;92.69;99090.34;5082258;28;20168;-68
2023/12/29 02:45:00;;;;;;;14.68;10.60;;;;;;;8.90;92.87;99080.78;5079633;28;20020;-69
2023/12/29 02:47:26;;;;;;;15.43;10.13;;;;;;;8.79;92.52;99076.44;5081222;27;20366;-67
2023/12/29 02:49:54;;;;;;;15.45;10.75;;;;;;;8.75;92.00;99085.41;5094899;27;20053;-67
2023/12/29 02:52:22;;;;;;;15.07;9.20;;;;;;;8.82;91.95;99079.63;5088689;27;20052;-67
2023/12/29 02:54:47;;;;;;;13.23;9.75;;;;;;;8.85;91.17;99075.94;5081423;28;20024;-68
2023/12/29 02:57:13;;;;;;;14.20;9.52;;;;;;;8.76;91.37;99080.13;5067366;27;20121;-67
2023/12/29 02:59:38;;;;;;;14.70;10.38;;;;;;;8.79;90.80;99073.84;5076550;28;20136;-67
2023/12/29 03:02:06;;;;;;;16.25;10.30;;;;;;;8.83;90.56;99070.91;5079834;28;20038;-67
2023/12/29 03:04:33;;;;;;;16.67;10.48;;;;;;;8.80;90.48;99067.72;5078086;28;20027;-67
2023/12/29 03:06:59;;;;;;;15.95;10.25;;;;;;;8.83;90.33;99064.88;5092150;28;20039;-68
2023/12/29 03:09:25;;;;;;;15.45;10.82;;;;;;;8.96;90.46;99059.53;5080933;28;20058;-68
2023/12/29 03:11:53;;;;;;;13.88;9.43;;;;;;;8.68;89.80;99011.66;5073933;28;20394;-68
2023/12/29 03:14:20;;;;;;;14.85;10.23;;;;;;;8.90;90.76;99050.47;5083266;28;20554;-68
2023/12/29 03:16:46;;;;;;;14.52;9.90;;;;;;;9.07;90.75;99058.66;5078407;28;20032;-67
2023/12/29 03:19:13;;;;;;;16.65;10.82;;;;;;;8.88;91.19;99057.56;5071667;28;20204;-67
2023/12/29 03:21:39;;;;;;;15.18;9.77;;;;;;;8.95;91.13;99057.91;5074442;28;20016;-68
2023/12/29 03:24:04;;;;;;;14.25;10.30;;;;;;;8.72;91.67;99031.22;5077270;28;20052;-65
2023/12/29 03:26:30;;;;;;;16.13;10.48;;;;;;;8.68;92.08;99033.22;5076826;28;20151;-66
2023/12/29 03:28:55;;;;;;;14.50;10.77;;;;;;;8.62;92.78;99033.72;5076085;28;20967;-67
2023/12/29 03:31:25;;;;;;;15.23;10.65;;;;;;;8.62;92.96;99031.94;5073725;28;20525;-67
2023/12/29 03:33:51;;;;;;;18.60;11.52;;;;;;;8.71;92.67;99039.94;5085839;28;20034;-67
2023/12/29 03:36:16;;;;;;;15.20;10.35;;;;;;;8.71;92.05;99027.81;5074359;28;20024;-68
2023/12/29 03:38:42;;;;;;;14.35;10.05;;;;;;;8.48;92.22;99010.66;5072423;28;20030;-68
2023/12/29 03:41:07;;;;;;;14.25;10.32;;;;;;;8.71;91.98;99040.75;5076443;28;20051;-68
2023/12/29 03:43:32;;;;;;;14.82;10.63;;;;;;;8.63;91.69;99009.44;5072171;28;20115;-68
2023/12/29 03:45:58;;;;;;;18.15;11.30;;;;;;;8.77;91.61;99045.44;5075685;28;20096;-68
2023/12/29 03:48:23;;;;;;;13.80;9.63;;;;;;;8.85;91.86;99050.84;5078826;28;20039;-70
2023/12/29 03:50:51;;;;;;;14.15;10.10;;;;;;;8.83;91.84;99041.53;5074219;28;20141;-68
2023/12/29 03:53:16;;;;;;;13.65;10.02;;;;;;;8.78;92.15;99038.47;5088503;28;20111;-68
2023/12/29 03:55:42;;;;;;;13.23;9.30;;;;;;;8.78;92.70;99033.28;5074954;28;20807;-67
2023/12/29 03:58:07;;;;;;;14.45;10.02;;;;;;;8.85;92.46;99037.03;5073952;28;20035;-68
2023/12/29 04:00:33;;;;;;;16.05;10.18;;;;;;;8.96;92.98;99031.84;5078627;28;20471;-70
2023/12/29 04:03:00;;;;;;;14.15;9.95;;;;;;;8.98;92.98;99027.34;5085134;28;20035;-68
2023/12/29 04:05:26;;;;;;;13.48;9.23;;;;;;;9.04;92.99;99026.84;5076878;28;20680;-67
2023/12/29 04:07:51;;;;;;;13.95;9.77;;;;;;;9.08;93.45;99018.81;5071381;28;20024;-67
2023/12/29 04:10:16;;;;;;;14.43;9.60;;;;;;;9.10;93.76;99015.16;5072147;28;20030;-68
2023/12/29 04:12:42;;;;;;;14.20;9.40;;;;;;;9.11;93.32;99018.56;5072626;28;20351;-67
2023/12/29 04:15:08;;;;;;;15.30;9.88;;;;;;;8.88;93.74;98982.34;5070428;28;20031;-68
2023/12/29 04:17:33;;;;;;;14.88;10.07;;;;;;;9.10;91.99;99022.94;5078061;28;20402;-68
2023/12/29 04:20:01;;;;;;;13.70;8.93;;;;;;;9.02;91.82;99027.94;5075433;28;20104;-68
2023/12/29 04:22:28;;;;;;;13.07;8.93;;;;;;;8.93;92.43;99021.72;5076524;28;20201;-68
2023/12/29 04:24:56;;;;;;;13.00;8.93;;;;;;;8.85;92.81;99021.50;5089097;28;20024;-68
2023/12/29 04:27:26;;;;;;;14.18;8.60;;;;;;;8.27;93.45;98970.75;5076955;28;20119;-68
2023/12/29 04:29:54;;;;;;;12.18;7.82;;;;;;;8.65;93.35;99015.31;5076181;28;20026;-68
2023/12/29 04:32:19;;;;;;;12.40;7.95;;;;;;;8.75;93.29;99013.63;5085294;28;20027;-67
2023/12/29 04:34:45;;;;;;;12.85;7.93;;;;;;;8.82;93.19;99013.97;5087245;28;20112;-67
2023/12/29 04:37:11;;;;;;;14.45;8.48;;;;;;;8.73;93.56;99012.13;5073552;28;20036;-67
2023/12/29 04:39:39;;;;;;;11.77;8.20;;;;;;;8.77;92.65;99005.75;5084238;28;20019;-68
2023/12/29 04:42:05;;;;;;;14.63;8.30;;;;;;;8.84;92.98;99004.31;5069156;28;20028;-68
2023/12/29 04:44:30;;;;;;;12.65;8.05;;;;;;;8.83;93.70;99007.84;5073320;28;20390;-68
2023/12/29 04:46:58;;;;;;;13.70;8.45;;;;;;;8.77;93.78;99010.94;5073055;28;20137;-68
2023/12/29 04:49:26;;;;;;;11.45;8.52;;;;;;;8.74;93.25;99008.56;5085445;28;20032;-68
2023/12/29 04:51:52;;;;;;;15.82;8.40;;;;;;;8.73;93.45;98994.78;5083694;28;20036;-68
2023/12/29 04:54:17;;;;;;;12.75;8.70;;;;;;;8.80;93.14;98987.34;5085523;28;20055;-67
2023/12/29 04:56:43;;;;;;;15.60;8.57;;;;;;;8.78;93.76;98989.22;5073794;28;20035;-68
2023/12/29 04:59:10;;;;;;;13.80;8.52;;;;;;;8.78;94.04;98997.00;5071818;28;20023;-68
2023/12/29 05:01:38;;;;;;;12.57;8.50;;;;;;;8.67;96.09;98997.88;5086164;28;20110;-67
2023/12/29 05:04:03;;;;;;;11.77;8.35;;;;;;;8.59;97.75;98992.47;5069088;28;20020;-69
2023/12/29 05:06:29;;;;;;;11.15;8.60;;;;;;;8.51;96.82;98995.69;5071005;28;20039;-68
2023/12/29 05:08:54;;;;;;;13.50;8.70;;;;;;;8.45;94.94;98986.63;5076457;28;20035;-68
2023/12/29 05:11:20;;;;;;;13.85;8.57;;;;;;;8.49;94.55;98992.41;5071728;28;20032;-69
2023/12/29 05:13:50;;;;;;;15.70;8.85;;;;;;;8.51;94.48;98982.72;5076926;28;20030;-68
2023/12/29 05:16:20;;;;;;;13.88;9.13;;;;;;;8.54;94.26;98994.59;5071604;28;20093;-66
2023/12/29 05:18:48;;;;;;;11.85;8.40;;;;;;;8.55;94.77;98991.91;5075036;28;20019;-67
2023/12/29 05:21:17;;;;;;;13.88;9.40;;;;;;;8.51;95.25;98987.09;5073340;28;20140;-68
2023/12/29 05:23:47;;;;;;;12.50;9.32;;;;;;;8.34;95.49;98946.94;5068085;28;20051;-67
2023/12/29 05:26:15;;;;;;;;;;;;;;;8.76;95.21;98991.13;5076506;28;20039;-70
2023/12/29 05:28:43;;;;;;;13.25;8.43;;;;;;;8.73;95.07;98999.97;5075510;28;19920;-68
2023/12/29 05:31:08;;;;;;;13.73;9.15;;;;;;;8.62;94.89;98967.13;5089866;28;20036;-67
2023/12/29 05:33:34;;;;;;;13.00;9.43;;;;;;;8.91;95.56;99000.25;5072483;28;20024;-68
2023/12/29 05:36:07;;;;;;;13.50;9.13;;;;;;;8.92;95.95;98996.72;5086077;28;20142;-67
2023/12/29 05:38:36;;;;;;;13.18;8.70;;;;;;;8.98;95.54;99005.75;5071716;28;20048;-67
2023/12/29 05:41:06;;;;;;;13.20;9.33;;;;;;;8.99;95.78;99013.41;5085531;28;20143;-67
2023/12/29 05:43:33;;;;;;;12.45;8.82;;;;;;;8.98;95.97;99016.13;5082074;28;20376;-68
2023/12/29 05:46:01;;;;;;;13.65;8.48;;;;;;;8.85;96.42;99011.97;5066794;28;20024;-67
2023/12/29 05:48:27;;;;;;;12.45;9.13;;;;;;;8.91;95.29;99015.81;5072455;28;20035;-64
2023/12/29 05:50:53;;;;;;;12.88;8.77;;;;;;;8.92;96.11;99027.84;5070029;28;20715;-68
2023/12/29 05:53:18;;;;;;;13.10;8.43;;;;;;;8.76;96.58;98983.34;5066192;28;20762;-67
2023/12/29 05:55:45;;;;;;;11.68;8.75;;;;;;;9.00;96.24;99009.88;5066674;28;20042;-67
2023/12/29 05:58:13;;;;;;;15.20;9.43;;;;;;;8.96;96.22;99016.28;5089094;28;20031;-67
2023/12/29 06:00:46;;;;;;;12.57;8.63;;;;;;;9.00;93.98;99015.06;5082856;28;20034;-67
2023/12/29 06:03:14;;;;;;;12.85;8.57;;;;;;;8.66;93.09;98978.91;5090724;28;20031;-68
2023/12/29 06:05:39;;;;;;;14.27;8.73;;;;;;;8.98;93.79;99016.13;5068440;28;20281;-67
2023/12/29 06:08:07;;;;;;;11.85;8.68;;;;;;;9.03;93.00;99021.78;5075116;28;20032;-68
2023/12/29 06:10:33;;;;;;;13.02;8.50;;;;;;;8.83;92.63;99020.78;5066578;28;20032;-67
2023/12/29 06:13:01;;;;;;;13.15;8.77;;;;;;;8.74;93.44;99024.13;5074421;28;20051;-68
2023/12/29 06:15:26;;;;;;;11.48;8.30;;;;;;;8.71;94.17;99019.22;5066452;28;20036;-68
2023/12/29 06:17:52;;;;;;;12.07;8.20;;;;;;;8.46;92.56;98980.50;5074788;28;20526;-70
2023/12/29 06:20:17;;;;;;;12.70;9.23;;;;;;;8.62;91.78;98997.44;5072059;28;20020;-67
2023/12/29 06:22:44;;;;;;;13.93;8.68;;;;;;;8.87;92.44;99022.22;5072929;28;20666;-67
2023/12/29 06:25:10;;;;;;;13.63;8.65;;;;;;;8.99;92.63;99026.38;5084862;28;20059;-68
2023/12/29 06:27:37;;;;;;;13.45;8.73;;;;;;;9.03;91.58;99024.38;5087471;28;20074;-69
2023/12/29 06:30:07;;;;;;;12.27;9.40;;;;;;;8.97;91.09;99017.09;5071932;28;20072;-67
2023/12/29 06:32:32;;;;;;;12.55;8.70;;;;;;;8.91;91.52;99013.22;5074091;28;20042;-68
2023/12/29 06:34:58;;;;;;;11.77;8.75;;;;;;;8.88;91.18;99026.44;5073727;28;20015;-67
2023/12/29 06:37:23;;;;;;;12.45;8.90;;;;;;;8.73;92.66;99017.31;5072884;28;20381;-66
2023/12/29 06:39:49;;;;;;;13.98;9.10;;;;;;;8.71;92.82;98986.31;5072519;28;20027;-67
2023/12/29 06:42:16;;;;;;;14.70;8.50;;;;;;;8.82;92.85;99021.75;5088652;28;20797;-67
2023/12/29 06:44:42;;;;;;;12.40;8.57;;;;;;;8.69;94.08;99014.13;5072116;28;20096;-69
2023/12/29 06:47:09;;;;;;;12.93;8.85;;;;;;;8.61;95.33;99003.53;5073340;28;20459;-67
2023/12/29 06:49:45;;;;;;;12.70;8.77;;;;;;;8.49;95.10;99005.34;5072412;28;20618;-68
2023/12/29 06:52:10;;;;;;;12.95;8.93;;;;;;;8.54;94.91;99007.56;5086264;28;20031;-67
2023/12/29 06:54:36;;;;;;;13.15;8.60;;;;;;;8.55;94.69;99006.63;5067667;28;20124;-67
2023/12/29 06:57:01;;;;;;;14.20;9.35;;;;;;;8.59;94.63;99002.84;5071025;28;20027;-68
2023/12/29 06:59:27;;;;;;;13.27;9.15;;;;;;;8.80;93.97;99019.28;5070975;28;20123;-67
2023/12/29 07:01:59;;;;;;;13.75;8.90;;;;;;;8.88;94.32;98997.91;5074157;28;20439;-68
2023/12/29 07:04:25;;;;;;;12.32;8.82;;;;;;;9.00;94.72;99016.84;5073393;28;20106;-68
2023/12/29 07:06:55;;;;;;;13.20;8.77;;;;;;;8.93;94.02;99007.94;5091642;28;20568;-68
2023/12/29 07:09:20;;;;;;;12.50;9.10;;;;;;;8.90;93.69;99013.34;5090815;28;20126;-66
2023/12/29 07:11:51;;;;;;;12.25;8.40;;;;;;;8.75;93.84;98998.09;5070005;28;20757;-66
2023/12/29 07:14:17;;;;;;;14.15;9.05;;;;;;;8.87;93.97;99011.00;5076834;28;21108;-67
2023/12/29 07:16:42;;;;;;;12.75;8.85;;;;;;;8.94;93.88;99017.34;5076701;28;20032;-68
2023/12/29 07:19:10;;;;;;;12.50;9.07;;;;;;;8.94;94.51;99009.56;5074719;28;20085;-68
2023/12/29 07:21:38;;;;;;;13.65;9.20;;;;;;;8.85;95.09;99024.94;5089920;28;20028;-67
2023/12/29 07:24:08;;;;;;;13.60;9.10;;;;;;;8.62;95.61;99018.97;5070806;28;20063;-67
2023/12/29 07:26:34;;;;;;;15.05;9.18;;;;;;;8.53;95.87;99017.13;5077396;28;20034;-66
2023/12/29 07:29:01;;;;;;;13.30;8.25;;;;;;;8.43;95.77;99023.97;5082406;28;20036;-67
2023/12/29 07:31:27;;;;;;;14.30;9.02;;;;;;;8.48;95.71;99027.03;5070329;28;20506;-67
2023/12/29 07:33:52;;;;;;;18.30;9.18;;;;;;;8.60;95.16;99033.03;5071823;28;20041;-67
2023/12/29 07:36:18;;;;;;;12.80;8.60;;;;;;;8.59;95.49;99034.78;5071504;28;20583;-66
2023/12/29 07:38:43;;;;;;;12.80;8.63;;;;;;;8.71;95.40;99033.00;5067070;28;20135;-67
2023/12/29 07:41:09;;;;;;;13.93;8.82;;;;;;;8.68;95.45;99035.00;5091550;28;20032;-67
2023/12/29 07:43:38;;;;;;;13.38;8.73;;;;;;;8.70;95.48;99028.72;5075520;28;20035;-68
2023/12/29 07:46:03;;;;;;;12.98;8.13;;;;;;;8.64;96.39;99031.81;5087005;28;20028;-66
2023/12/29 07:48:31;;;;;;;12.40;7.95;;;;;;;8.65;97.06;99028.28;5074272;28;20043;-67
2023/12/29 07:50:58;;;;;;;13.40;8.20;;;;;;;8.24;97.04;98986.53;5061708;28;20905;-67
2023/12/29 07:53:23;;;;;;;11.93;8.05;;;;;;;8.59;97.13;99032.19;5074522;28;20482;-67
2023/12/29 07:55:50;;;;;;;13.20;7.78;;;;;;;8.63;96.33;99033.59;5073634;28;20110;-68
2023/12/29 07:58:17;;;;;;;11.20;7.53;;;;;;;8.43;96.25;99014.44;5078751;28;20035;-67
2023/12/29 08:00:45;;;;;;;11.85;8.18;;;;;;;8.26;95.32;98997.59;5074827;28;20028;-67
2023/12/29 08:03:10;;;;;;;11.88;7.90;;;;;;;8.54;95.09;99036.94;5091160;28;20033;-67
2023/12/29 08:05:36;;;;;;;14.02;7.03;;;;;;;8.55;95.05;99038.56;5076711;28;20741;-66
2023/12/29 08:08:04;;;;;;;10.45;7.07;;;;;;;8.46;95.05;99031.50;5073626;28;20032;-68
2023/12/29 08:10:32;;;;;;;10.13;6.63;;;;;;;8.53;94.73;99031.84;5070324;28;21895;-66
2023/12/29 08:12:57;;;;;;;12.00;7.22;;;;;;;8.59;94.78;99033.94;5070473;28;20030;-67
2023/12/29 08:15:25;;;;;;;11.48;7.63;;;;;;;8.39;95.47;99001.81;5070459;28;20023;-66
2023/12/29 08:17:50;;;;;;;10.23;7.45;;;;;;;8.71;95.81;99048.53;5071042;28;20048;-66
2023/12/29 08:20:16;;;;;;;13.00;9.30;;;;;;;8.74;95.67;99045.69;5074525;28;20032;-67
2023/12/29 08:22:41;;;;;;;12.32;8.20;;;;;;;8.72;96.02;99041.56;5071748;28;20097;-66
2023/12/29 08:25:09;;;;;;;12.45;7.60;;;;;;;8.75;95.71;99049.13;5073357;28;20032;-66
2023/12/29 08:27:35;;;;;;;11.27;7.28;;;;;;;8.68;96.84;99051.38;5083395;28;20807;-67
2023/12/29 08:30:00;;;;;;;11.50;7.78;;;;;;;8.71;96.95;99051.13;5071580;28;20042;-68
2023/12/29 08:32:28;;;;;;;14.02;9.48;;;;;;;8.53;97.45;99061.19;5068414;28;20032;-68
2023/12/29 08:34:53;;;;;;;14.00;9.25;;;;;;;8.58;97.02;99053.03;5079688;28;20705;-69
2023/12/29 08:37:19;;;;;;;14.43;8.65;;;;;;;8.72;96.32;99064.91;5066517;28;20127;-68
2023/12/29 08:39:47;;;;;;;14.82;8.65;;;;;;;8.67;97.42;99067.88;5066019;28;20039;-68
2023/12/29 08:42:12;;;;;;;15.98;11.05;;;;;;;8.63;95.91;99063.88;5078127;28;20675;-68
2023/12/29 08:44:38;;;;;;;14.60;9.85;;;;;;;8.52;95.63;99059.53;5077978;28;20864;-68
2023/12/29 08:47:07;;;;;;;15.98;10.20;;;;;;;8.52;95.58;99053.53;5059563;28;20050;-68
2023/12/29 08:49:36;;;;;;;21.48;13.45;;;;;;;8.31;94.94;99023.16;5069330;28;20274;-69
2023/12/29 08:52:01;;;;;;;20.52;12.88;;;;;;;8.73;94.97;99069.16;5059116;28;20529;-67
2023/12/29 08:54:29;;;;;;;19.42;11.60;;;;;;;8.83;94.57;99070.06;5075858;28;20045;-67
2023/12/29 08:56:54;;;;;;;15.60;10.25;;;;;;;8.85;94.73;99083.72;5080962;28;20028;-67
2023/12/29 08:59:20;;;;;;;16.38;9.05;;;;;;;8.97;94.35;99092.31;5063203;28;20791;-69
2023/12/29 09:01:45;;;;;;;15.40;10.57;;;;;;;9.04;94.36;99088.28;5064183;28;20852;-66
2023/12/29 09:04:11;;;;;;;14.07;9.57;;;;;;;8.99;94.29;99086.03;5061817;28;20580;-67
2023/12/29 09:06:41;;;;;;;13.10;8.20;;;;;;;9.04;94.33;99086.50;5067525;28;20027;-68
2023/12/29 09:09:12;;;;;;;11.32;7.85;;;;;;;9.00;94.68;99089.47;5065083;28;20488;-67
2023/12/29 09:11:43;;;;;;;11.75;7.75;;;;;;;8.88;95.13;99082.69;5067855;28;20550;-67
2023/12/29 09:14:09;;;;;;;12.98;8.15;;;;;;;8.92;95.50;99086.66;5077611;28;20078;-67
2023/12/29 09:16:37;;;;;;;12.48;8.52;;;;;;;8.87;95.11;99089.66;5076151;28;20674;-68
2023/12/29 09:19:05;;;;;;;18.42;10.88;;;;;;;8.71;95.83;99084.84;5065995;28;20058;-67
2023/12/29 09:21:31;;;;;;;15.20;10.63;;;;;;;8.57;95.73;99090.28;5064827;28;20055;-67
2023/12/29 09:23:56;;;;;;;13.25;9.27;;;;;;;8.57;95.74;99085.09;5071259;28;20053;-68
2023/12/29 09:26:22;;;;;;;13.15;7.95;;;;;;;8.59;95.46;99072.84;5059647;28;20031;-68
2023/12/29 09:28:47;;;;;;;12.65;8.18;;;;;;;8.62;95.11;99078.59;5065635;28;20027;-68
2023/12/29 09:31:13;;;;;;;11.43;7.85;;;;;;;8.80;94.64;99080.69;5063648;28;20023;-69
2023/12/29 09:33:38;;;;;;;12.43;8.30;;;;;;;8.85;94.97;99075.94;5077737;28;20755;-67
2023/12/29 09:36:04;;;;;;;10.25;7.70;;;;;;;8.86;94.22;99080.19;5076961;28;20035;-67
2023/12/29 09:38:30;;;;;;;12.18;7.97;;;;;;;8.85;95.32;99087.16;5063358;28;20058;-68
2023/12/29 09:41:03;;;;;;;11.77;7.93;;;;;;;8.90;95.54;99086.78;5064656;28;20036;-67
2023/12/29 09:43:31;;;;;;;10.23;6.68;;;;;;;8.95;94.51;99100.22;5059872;28;20036;-70
2023/12/29 09:45:57;;;;;;;12.93;7.50;;;;;;;9.02;94.02;99100.56;5071465;28;20463;-69
2023/12/29 09:48:26;;;;;;;11.82;7.22;;;;;;;9.02;94.00;99111.75;5062422;28;20039;-68
2023/12/29 09:50:52;;;;;;;10.80;6.72;;;;;;;9.09;93.47;99103.47;5068167;28;20019;-66
2023/12/29 09:53:19;;;;;;;12.13;6.82;;;;;;;9.08;92.14;99102.66;5078657;28;20039;-67
2023/12/29 09:55:46;;;;;;;9.80;6.43;;;;;;;9.06;93.58;99104.53;5061767;28;20023;-68
2023/12/29 09:58:17;;;;;;;13.55;7.85;;;;;;;9.09;94.65;99106.06;5068611;28;20416;-68
2023/12/29 10:00:43;;;;;;;12.38;7.38;;;;;;;9.08;94.99;99107.03;5075850;28;20862;-68
2023/12/29 10:03:09;;;;;;;12.20;7.68;;;;;;;9.15;94.85;99111.59;5067868;28;20027;-68
2023/12/29 10:05:37;;;;;;;10.57;7.60;;;;;;;9.17;93.58;99119.25;5063469;28;20032;-68
2023/12/29 10:08:05;;;;;;;11.20;7.40;;;;;;;9.28;92.27;99108.00;5066071;28;20458;-67
2023/12/29 10:10:31;;;;;;;11.70;7.88;;;;;;;9.33;92.09;99111.88;5063233;28;20044;-68
2023/12/29 10:13:00;;;;;;;12.82;8.13;;;;;;;9.40;91.39;99109.59;5064983;28;20545;-68
2023/12/29 10:16:03;;;;;;;11.43;7.47;;;;;;;9.42;91.97;99102.53;5078975;28;20043;-69
2023/12/29 10:18:35;;;;;;;11.48;7.72;;;;;;;9.41;92.70;99087.88;5081878;28;20035;-67
2023/12/29 10:21:18;;;;;;;12.07;7.78;;;;;;;9.03;91.96;99053.75;5068122;28;20567;-68
2023/12/29 10:23:52;;;;;;;11.98;7.85;;;;;;;9.24;93.23;99090.09;5069461;28;20505;-68
2023/12/29 10:26:17;;;;;;;11.93;7.50;;;;;;;9.17;93.93;99077.75;5073834;28;20043;-67
2023/12/29 10:28:43;;;;;;;13.25;7.22;;;;;;;9.24;93.02;99073.69;5063618;28;20031;-67
2023/12/29 10:31:10;;;;;;;12.70;7.68;;;;;;;9.12;92.29;99083.28;5071575;28;20375;-68
2023/12/29 10:33:37;;;;;;;11.73;7.13;;;;;;;9.07;91.95;99077.63;5065170;28;20120;-67
2023/12/29 10:36:05;;;;;;;12.75;7.35;;;;;;;8.76;93.49;99030.00;5060670;28;20467;-68
2023/12/29 10:38:32;;;;;;;11.00;7.43;;;;;;;9.11;93.06;99060.91;5084154;28;20516;-69
2023/12/29 10:41:15;;;;;;;11.52;7.43;;;;;;;9.09;93.05;99065.41;5067386;28;20024;-67
2023/12/29 10:43:42;;;;;;;9.45;6.43;;;;;;;9.15;92.12;99051.09;5067049;28;20046;-67
2023/12/29 10:46:08;;;;;;;11.23;7.07;;;;;;;9.17;89.58;99065.59;5079685;28;20085;-68
2023/12/29 10:48:36;;;;;;;12.95;7.05;;;;;;;9.24;89.96;99063.31;5069336;28;20036;-67
2023/12/29 10:51:05;;;;;;;11.27;6.93;;;;;;;9.11;92.04;99052.28;5072548;28;20086;-67
2023/12/29 10:53:39;;;;;;;11.13;6.87;;;;;;;9.24;93.48;99058.13;5066273;28;20050;-67
2023/12/29 10:56:19;;;;;;;11.15;6.85;;;;;;;9.30;92.87;99057.63;5068799;28;20043;-66
2023/12/29 10:58:48;;;;;;;11.25;6.70;;;;;;;9.26;91.68;99043.25;5076026;28;20092;-68
2023/12/29 11:01:19;;;;;;;9.77;6.18;;;;;;;9.37;91.93;99063.97;5052535;28;20883;-69
2023/12/29 11:03:46;;;;;;;9.23;5.82;;;;;;;9.24;91.70;99058.94;5081054;28;20047;-68
2023/12/29 11:06:14;;;;;;;8.75;6.00;;;;;;;9.27;91.83;99057.88;5071769;28;20036;-68
2023/12/29 11:08:39;;;;;;;8.65;5.45;;;;;;;9.19;90.45;99045.53;5068352;28;20031;-68
2023/12/29 11:11:05;;;;;;;10.43;6.03;;;;;;;9.20;90.39;99049.78;5080903;28;20098;-68
2023/12/29 11:13:33;;;;;;;9.35;5.90;;;;;;;9.24;90.28;99042.56;5066609;28;20107;-69
2023/12/29 11:16:01;;;;;;;9.60;6.18;;;;;;;9.19;91.01;99039.53;5080383;28;20475;-69
2023/12/29 11:18:27;;;;;;;10.48;6.18;;;;;;;9.22;92.02;99034.09;5069042;28;20016;-68
2023/12/29 11:20:53;;;;;;;10.48;5.88;;;;;;;9.24;92.08;99034.78;5070345;28;20729;-67
2023/12/29 11:23:18;;;;;;;9.93;6.55;;;;;;;9.21;91.16;99029.84;5066466;28;20097;-68
2023/12/29 11:25:48;;;;;;;10.07;6.25;;;;;;;9.08;89.73;98995.47;5065525;28;20794;-67
2023/12/29 11:28:13;;;;;;;;;;;;;;;9.29;89.62;99031.78;5082333;28;20127;-67
2023/12/29 11:30:39;;;;;;;11.48;6.70;;;;;;;9.29;89.21;99027.44;5079952;28;19935;-70